sensor_id;sensor_type;location;lat;lon;timestamp;temperature;humidity
52869;DHT22;39100;53.480;6.158;2023-01-23T00:00:55;4.60;99.90
52869;DHT22;39100;53.480;6.158;2023-01-23T00:03:21;4.60;99.90
52869;DHT22;39100;53.480;6.158;2023-01-23T00:05:56;4.50;99.90
52869;DHT22;39100;53.480;6.158;2023-01-23T00:08:21;4.50;99.90
52869;DHT22;39100;53.480;6.158;2023-01-23T00:10:47;4.50;99.90
52869;DHT22;39100;53.480;6.158;2023-01-23T00:13:13;4.40;99.90
52869;DHT22;39100;53.480;6.158;2023-01-23T00:15:39;4.40;99.90
52869;DHT22;39100;53.480;6.158;2023-01-23T00:18:04;4.40;99.90
52869;DHT22;39100;53.480;6.158;2023-01-23T00:20:30;4.40;99.90
52869;DHT22;39100;53.480;6.158;2023-01-23T00:22:55;4.40;99.90
52869;DHT22;39100;53.480;6.158;2023-01-23T00:25:21;4.40;99.90
52869;DHT22;39100;53.480;6.158;2023-01-23T00:27:46;4.40;99.90
52869;DHT22;39100;53.480;6.158;2023-01-23T00:30:12;4.40;99.90
52869;DHT22;39100;53.480;6.158;2023-01-23T00:32:38;4.30;99.90
52869;DHT22;39100;53.480;6.158;2023-01-23T00:35:04;4.30;99.90
52869;DHT22;39100;53.480;6.158;2023-01-23T00:37:30;4.30;99.90
52869;DHT22;39100;53.480;6.158;2023-01-23T00:39:55;4.30;99.90
52869;DHT22;39100;53.480;6.158;2023-01-23T00:42:21;4.30;99.90
52869;DHT22;39100;53.480;6.158;2023-01-23T00:44:46;4.30;99.90
52869;DHT22;39100;53.480;6.158;2023-01-23T00:47:12;4.30;99.90
52869;DHT22;39100;53.480;6.158;2023-01-23T00:49:37;4.30;99.90
52869;DHT22;39100;53.480;6.158;2023-01-23T00:52:03;4.30;99.90
52869;DHT22;39100;53.480;6.158;2023-01-23T00:54:29;4.30;99.90
52869;DHT22;39100;53.480;6.158;2023-01-23T00:56:54;4.30;99.90
52869;DHT22;39100;53.480;6.158;2023-01-23T00:59:22;4.20;99.90
52869;DHT22;39100;53.480;6.158;2023-01-23T01:01:47;4.20;99.90
52869;DHT22;39100;53.480;6.158;2023-01-23T01:04:13;4.20;99.90
52869;DHT22;39100;53.480;6.158;2023-01-23T01:06:39;4.20;99.90
52869;DHT22;39100;53.480;6.158;2023-01-23T01:09:04;4.20;99.90
52869;DHT22;39100;53.480;6.158;2023-01-23T01:11:30;4.20;99.90
52869;DHT22;39100;53.480;6.158;2023-01-23T01:13:55;4.20;99.90
52869;DHT22;39100;53.480;6.158;2023-01-23T01:16:21;4.20;99.90
52869;DHT22;39100;53.480;6.158;2023-01-23T01:18:49;4.10;99.90
52869;DHT22;39100;53.480;6.158;2023-01-23T01:21:15;4.10;99.90
52869;DHT22;39100;53.480;6.158;2023-01-23T01:23:41;4.10;99.90
52869;DHT22;39100;53.480;6.158;2023-01-23T01:26:07;4.10;99.90
52869;DHT22;39100;53.480;6.158;2023-01-23T01:28:34;4.10;99.90
52869;DHT22;39100;53.480;6.158;2023-01-23T01:31:08;4.10;99.90
52869;DHT22;39100;53.480;6.158;2023-01-23T01:33:36;4.00;99.90
52869;DHT22;39100;53.480;6.158;2023-01-23T01:36:02;4.10;99.90
52869;DHT22;39100;53.480;6.158;2023-01-23T01:38:28;4.00;99.90
52869;DHT22;39100;53.480;6.158;2023-01-23T01:40:53;4.00;99.90
52869;DHT22;39100;53.480;6.158;2023-01-23T01:43:23;4.00;99.90
52869;DHT22;39100;53.480;6.158;2023-01-23T01:51:31;4.10;99.90
52869;DHT22;39100;53.480;6.158;2023-01-23T01:56:58;4.10;99.90
52869;DHT22;39100;53.480;6.158;2023-01-23T01:59:28;4.10;99.90
52869;DHT22;39100;53.480;6.158;2023-01-23T02:02:05;4.10;99.90
52869;DHT22;39100;53.480;6.158;2023-01-23T02:04:35;4.10;99.90
52869;DHT22;39100;53.480;6.158;2023-01-23T02:07:08;4.10;99.90
52869;DHT22;39100;53.480;6.158;2023-01-23T02:09:36;4.10;99.90
52869;DHT22;39100;53.480;6.158;2023-01-23T02:12:02;4.10;99.90
52869;DHT22;39100;53.480;6.158;2023-01-23T02:14:28;4.90;99.90
52869;DHT22;39100;53.480;6.158;2023-01-23T02:16:54;4.10;99.90
52869;DHT22;39100;53.480;6.158;2023-01-23T02:19:39;4.10;99.90
52869;DHT22;39100;53.480;6.158;2023-01-23T02:22:29;4.10;99.90
52869;DHT22;39100;53.480;6.158;2023-01-23T02:27:25;4.20;99.90
52869;DHT22;39100;53.480;6.158;2023-01-23T02:29:51;4.20;99.90
52869;DHT22;39100;53.480;6.158;2023-01-23T02:32:18;4.20;99.90
52869;DHT22;39100;53.480;6.158;2023-01-23T02:34:44;4.20;99.90
52869;DHT22;39100;53.480;6.158;2023-01-23T02:37:10;4.20;99.90
52869;DHT22;39100;53.480;6.158;2023-01-23T02:39:36;4.20;99.90
52869;DHT22;39100;53.480;6.158;2023-01-23T02:42:04;4.20;99.90
52869;DHT22;39100;53.480;6.158;2023-01-23T02:44:30;4.20;99.90
52869;DHT22;39100;53.480;6.158;2023-01-23T02:47:06;4.20;99.90
52869;DHT22;39100;53.480;6.158;2023-01-23T02:49:38;4.20;99.90
52869;DHT22;39100;53.480;6.158;2023-01-23T02:52:04;4.20;99.90
52869;DHT22;39100;53.480;6.158;2023-01-23T02:54:31;4.20;99.90
52869;DHT22;39100;53.480;6.158;2023-01-23T02:56:57;4.10;99.90
52869;DHT22;39100;53.480;6.158;2023-01-23T02:59:23;4.10;99.90
52869;DHT22;39100;53.480;6.158;2023-01-23T03:02:07;4.10;99.90
52869;DHT22;39100;53.480;6.158;2023-01-23T03:04:33;4.10;99.90
52869;DHT22;39100;53.480;6.158;2023-01-23T03:06:58;4.10;99.90
52869;DHT22;39100;53.480;6.158;2023-01-23T03:09:24;4.10;99.90
52869;DHT22;39100;53.480;6.158;2023-01-23T03:11:50;4.10;99.90
52869;DHT22;39100;53.480;6.158;2023-01-23T03:14:18;4.10;99.90
52869;DHT22;39100;53.480;6.158;2023-01-23T03:16:45;4.10;99.90
52869;DHT22;39100;53.480;6.158;2023-01-23T03:19:20;4.10;99.90
52869;DHT22;39100;53.480;6.158;2023-01-23T03:21:47;4.10;99.90
52869;DHT22;39100;53.480;6.158;2023-01-23T03:24:14;4.10;99.90
52869;DHT22;39100;53.480;6.158;2023-01-23T03:26:47;4.10;99.90
52869;DHT22;39100;53.480;6.158;2023-01-23T03:29:18;4.10;99.90
52869;DHT22;39100;53.480;6.158;2023-01-23T03:32:03;4.10;99.90
52869;DHT22;39100;53.480;6.158;2023-01-23T03:34:29;4.10;99.90
52869;DHT22;39100;53.480;6.158;2023-01-23T03:36:56;4.10;99.90
52869;DHT22;39100;53.480;6.158;2023-01-23T03:39:21;4.10;99.90
52869;DHT22;39100;53.480;6.158;2023-01-23T03:42:06;4.10;99.90
52869;DHT22;39100;53.480;6.158;2023-01-23T03:44:31;4.10;99.90
52869;DHT22;39100;53.480;6.158;2023-01-23T03:46:57;4.10;99.90
52869;DHT22;39100;53.480;6.158;2023-01-23T03:49:22;4.10;99.90
52869;DHT22;39100;53.480;6.158;2023-01-23T03:51:48;4.00;99.90
52869;DHT22;39100;53.480;6.158;2023-01-23T03:54:13;4.00;99.90
52869;DHT22;39100;53.480;6.158;2023-01-23T03:56:40;4.00;99.90
52869;DHT22;39100;53.480;6.158;2023-01-23T03:59:06;4.00;99.90
52869;DHT22;39100;53.480;6.158;2023-01-23T04:01:32;4.00;99.90
52869;DHT22;39100;53.480;6.158;2023-01-23T04:03:58;4.00;99.90
52869;DHT22;39100;53.480;6.158;2023-01-23T04:06:23;4.00;99.90
52869;DHT22;39100;53.480;6.158;2023-01-23T04:08:49;4.00;99.90
52869;DHT22;39100;53.480;6.158;2023-01-23T04:11:14;4.00;99.90
52869;DHT22;39100;53.480;6.158;2023-01-23T04:13:40;4.00;99.90
52869;DHT22;39100;53.480;6.158;2023-01-23T04:16:06;4.10;99.90
52869;DHT22;39100;53.480;6.158;2023-01-23T04:18:32;4.00;99.90
52869;DHT22;39100;53.480;6.158;2023-01-23T04:20:58;4.00;99.90
52869;DHT22;39100;53.480;6.158;2023-01-23T04:23:24;4.00;99.90
52869;DHT22;39100;53.480;6.158;2023-01-23T04:25:50;4.00;99.90
52869;DHT22;39100;53.480;6.158;2023-01-23T04:28:17;4.00;99.90
52869;DHT22;39100;53.480;6.158;2023-01-23T04:30:43;4.10;99.90
52869;DHT22;39100;53.480;6.158;2023-01-23T04:33:09;4.10;99.90
52869;DHT22;39100;53.480;6.158;2023-01-23T04:35:35;4.10;99.90
52869;DHT22;39100;53.480;6.158;2023-01-23T04:38:03;4.00;99.90
52869;DHT22;39100;53.480;6.158;2023-01-23T04:40:29;4.10;99.90
52869;DHT22;39100;53.480;6.158;2023-01-23T04:42:54;4.10;99.90
52869;DHT22;39100;53.480;6.158;2023-01-23T04:45:20;4.10;99.90
52869;DHT22;39100;53.480;6.158;2023-01-23T04:47:46;4.10;99.90
52869;DHT22;39100;53.480;6.158;2023-01-23T04:50:11;4.10;99.90
52869;DHT22;39100;53.480;6.158;2023-01-23T04:52:37;4.00;99.90
52869;DHT22;39100;53.480;6.158;2023-01-23T04:55:03;4.00;99.90
52869;DHT22;39100;53.480;6.158;2023-01-23T04:57:29;4.00;99.90
52869;DHT22;39100;53.480;6.158;2023-01-23T04:59:54;4.00;99.90
52869;DHT22;39100;53.480;6.158;2023-01-23T05:02:20;4.00;99.90
52869;DHT22;39100;53.480;6.158;2023-01-23T05:04:45;4.00;99.90
52869;DHT22;39100;53.480;6.158;2023-01-23T05:07:11;4.00;99.90
52869;DHT22;39100;53.480;6.158;2023-01-23T05:09:38;4.00;99.90
52869;DHT22;39100;53.480;6.158;2023-01-23T05:12:04;4.00;99.90
52869;DHT22;39100;53.480;6.158;2023-01-23T05:14:30;4.00;99.90
52869;DHT22;39100;53.480;6.158;2023-01-23T05:16:55;4.00;99.90
52869;DHT22;39100;53.480;6.158;2023-01-23T05:19:21;4.00;99.90
52869;DHT22;39100;53.480;6.158;2023-01-23T05:21:47;4.00;99.90
52869;DHT22;39100;53.480;6.158;2023-01-23T05:24:13;4.00;99.90
52869;DHT22;39100;53.480;6.158;2023-01-23T05:26:38;4.00;99.90
52869;DHT22;39100;53.480;6.158;2023-01-23T05:29:04;4.00;99.90
52869;DHT22;39100;53.480;6.158;2023-01-23T05:31:30;4.00;99.90
52869;DHT22;39100;53.480;6.158;2023-01-23T05:33:56;4.00;99.90
52869;DHT22;39100;53.480;6.158;2023-01-23T05:36:21;4.10;99.90
52869;DHT22;39100;53.480;6.158;2023-01-23T05:38:47;4.10;99.90
52869;DHT22;39100;53.480;6.158;2023-01-23T05:41:12;4.10;99.90
52869;DHT22;39100;53.480;6.158;2023-01-23T05:43:38;4.10;99.90
52869;DHT22;39100;53.480;6.158;2023-01-23T05:46:04;4.10;99.90
52869;DHT22;39100;53.480;6.158;2023-01-23T05:48:29;4.00;99.90
52869;DHT22;39100;53.480;6.158;2023-01-23T05:50:55;4.00;99.90
52869;DHT22;39100;53.480;6.158;2023-01-23T05:53:20;4.00;99.90
52869;DHT22;39100;53.480;6.158;2023-01-23T05:55:46;4.00;99.90
52869;DHT22;39100;53.480;6.158;2023-01-23T05:58:11;4.10;99.90
52869;DHT22;39100;53.480;6.158;2023-01-23T06:00:37;4.00;99.90
52869;DHT22;39100;53.480;6.158;2023-01-23T06:03:03;4.00;99.90
52869;DHT22;39100;53.480;6.158;2023-01-23T06:05:28;3.20;99.90
52869;DHT22;39100;53.480;6.158;2023-01-23T06:07:54;4.00;99.90
52869;DHT22;39100;53.480;6.158;2023-01-23T06:10:20;4.00;99.90
52869;DHT22;39100;53.480;6.158;2023-01-23T06:12:45;4.00;99.90
52869;DHT22;39100;53.480;6.158;2023-01-23T06:15:11;4.00;99.90
52869;DHT22;39100;53.480;6.158;2023-01-23T06:17:36;4.00;99.90
52869;DHT22;39100;53.480;6.158;2023-01-23T06:20:03;4.00;99.90
52869;DHT22;39100;53.480;6.158;2023-01-23T06:22:29;4.00;99.90
52869;DHT22;39100;53.480;6.158;2023-01-23T06:24:54;3.90;99.90
52869;DHT22;39100;53.480;6.158;2023-01-23T06:27:20;4.00;99.90
52869;DHT22;39100;53.480;6.158;2023-01-23T06:29:45;4.10;99.90
52869;DHT22;39100;53.480;6.158;2023-01-23T06:32:11;4.00;99.90
52869;DHT22;39100;53.480;6.158;2023-01-23T06:34:37;4.00;99.90
52869;DHT22;39100;53.480;6.158;2023-01-23T06:37:02;4.00;99.90
52869;DHT22;39100;53.480;6.158;2023-01-23T06:39:28;4.00;99.90
52869;DHT22;39100;53.480;6.158;2023-01-23T06:41:58;4.00;99.90
52869;DHT22;39100;53.480;6.158;2023-01-23T06:44:24;4.00;99.90
52869;DHT22;39100;53.480;6.158;2023-01-23T06:46:51;3.90;99.90
52869;DHT22;39100;53.480;6.158;2023-01-23T06:49:17;4.00;99.90
52869;DHT22;39100;53.480;6.158;2023-01-23T06:51:43;4.00;99.90
52869;DHT22;39100;53.480;6.158;2023-01-23T06:54:08;4.00;99.90
52869;DHT22;39100;53.480;6.158;2023-01-23T06:56:34;4.00;99.90
52869;DHT22;39100;53.480;6.158;2023-01-23T06:59:00;4.10;99.90
52869;DHT22;39100;53.480;6.158;2023-01-23T07:01:25;4.10;99.90
52869;DHT22;39100;53.480;6.158;2023-01-23T07:03:51;4.10;99.90
52869;DHT22;39100;53.480;6.158;2023-01-23T07:06:16;4.10;99.90
52869;DHT22;39100;53.480;6.158;2023-01-23T07:08:43;4.10;99.90
52869;DHT22;39100;53.480;6.158;2023-01-23T07:11:09;4.10;99.90
52869;DHT22;39100;53.480;6.158;2023-01-23T07:13:35;4.10;99.90
52869;DHT22;39100;53.480;6.158;2023-01-23T07:16:00;4.10;99.90
52869;DHT22;39100;53.480;6.158;2023-01-23T07:18:26;4.10;99.90
52869;DHT22;39100;53.480;6.158;2023-01-23T07:20:54;4.10;99.90
52869;DHT22;39100;53.480;6.158;2023-01-23T07:23:20;4.00;99.90
52869;DHT22;39100;53.480;6.158;2023-01-23T07:25:46;4.10;99.90
52869;DHT22;39100;53.480;6.158;2023-01-23T07:28:11;4.10;99.90
52869;DHT22;39100;53.480;6.158;2023-01-23T07:30:37;4.10;99.90
52869;DHT22;39100;53.480;6.158;2023-01-23T07:33:03;4.10;99.90
52869;DHT22;39100;53.480;6.158;2023-01-23T07:35:29;4.10;99.90
52869;DHT22;39100;53.480;6.158;2023-01-23T07:37:55;4.20;99.90
52869;DHT22;39100;53.480;6.158;2023-01-23T07:40:20;4.20;99.90
52869;DHT22;39100;53.480;6.158;2023-01-23T07:42:46;4.20;99.90
52869;DHT22;39100;53.480;6.158;2023-01-23T07:45:12;4.20;99.90
52869;DHT22;39100;53.480;6.158;2023-01-23T07:47:38;4.20;99.90
52869;DHT22;39100;53.480;6.158;2023-01-23T07:50:08;4.20;99.90
52869;DHT22;39100;53.480;6.158;2023-01-23T07:52:35;4.30;99.90
52869;DHT22;39100;53.480;6.158;2023-01-23T07:55:01;4.30;99.90
52869;DHT22;39100;53.480;6.158;2023-01-23T07:57:27;4.30;99.90
52869;DHT22;39100;53.480;6.158;2023-01-23T07:59:52;4.30;99.90
52869;DHT22;39100;53.480;6.158;2023-01-23T08:02:18;4.20;99.90
52869;DHT22;39100;53.480;6.158;2023-01-23T08:04:44;4.20;99.90
52869;DHT22;39100;53.480;6.158;2023-01-23T08:07:09;4.20;99.90
52869;DHT22;39100;53.480;6.158;2023-01-23T08:09:35;4.20;99.90
52869;DHT22;39100;53.480;6.158;2023-01-23T08:12:00;4.20;99.90
52869;DHT22;39100;53.480;6.158;2023-01-23T08:14:26;4.30;99.90
52869;DHT22;39100;53.480;6.158;2023-01-23T08:16:52;4.20;99.90
52869;DHT22;39100;53.480;6.158;2023-01-23T08:19:18;4.30;99.90
52869;DHT22;39100;53.480;6.158;2023-01-23T08:21:45;4.30;99.90
52869;DHT22;39100;53.480;6.158;2023-01-23T08:24:12;4.30;99.90
52869;DHT22;39100;53.480;6.158;2023-01-23T08:26:38;4.40;99.90
52869;DHT22;39100;53.480;6.158;2023-01-23T08:29:03;4.40;99.90
52869;DHT22;39100;53.480;6.158;2023-01-23T08:31:29;4.40;99.90
52869;DHT22;39100;53.480;6.158;2023-01-23T08:33:55;4.50;99.90
52869;DHT22;39100;53.480;6.158;2023-01-23T08:36:21;4.50;99.90
52869;DHT22;39100;53.480;6.158;2023-01-23T08:38:47;4.60;99.90
52869;DHT22;39100;53.480;6.158;2023-01-23T08:41:13;4.60;99.90
52869;DHT22;39100;53.480;6.158;2023-01-23T08:43:38;4.60;99.90
52869;DHT22;39100;53.480;6.158;2023-01-23T08:46:06;4.70;99.90
52869;DHT22;39100;53.480;6.158;2023-01-23T08:48:32;4.60;99.90
52869;DHT22;39100;53.480;6.158;2023-01-23T08:51:07;4.70;99.90
52869;DHT22;39100;53.480;6.158;2023-01-23T08:53:34;4.70;99.90
52869;DHT22;39100;53.480;6.158;2023-01-23T08:56:04;4.70;99.90
52869;DHT22;39100;53.480;6.158;2023-01-23T08:58:30;4.80;99.90
52869;DHT22;39100;53.480;6.158;2023-01-23T09:00:57;4.80;99.90
52869;DHT22;39100;53.480;6.158;2023-01-23T09:03:23;4.70;99.90
52869;DHT22;39100;53.480;6.158;2023-01-23T09:05:48;4.70;99.90
52869;DHT22;39100;53.480;6.158;2023-01-23T09:08:14;4.80;99.90
52869;DHT22;39100;53.480;6.158;2023-01-23T09:10:40;4.80;99.90
52869;DHT22;39100;53.480;6.158;2023-01-23T09:13:05;4.80;99.90
52869;DHT22;39100;53.480;6.158;2023-01-23T09:15:31;4.80;99.90
52869;DHT22;39100;53.480;6.158;2023-01-23T09:17:56;4.80;99.90
52869;DHT22;39100;53.480;6.158;2023-01-23T09:20:22;4.90;99.90
52869;DHT22;39100;53.480;6.158;2023-01-23T09:22:51;4.90;99.90
52869;DHT22;39100;53.480;6.158;2023-01-23T09:25:17;4.80;99.90
52869;DHT22;39100;53.480;6.158;2023-01-23T09:27:43;4.80;99.90
52869;DHT22;39100;53.480;6.158;2023-01-23T09:30:09;4.90;99.90
52869;DHT22;39100;53.480;6.158;2023-01-23T09:32:35;4.90;99.90
52869;DHT22;39100;53.480;6.158;2023-01-23T09:35:00;4.90;99.90
52869;DHT22;39100;53.480;6.158;2023-01-23T09:37:29;5.90;99.90
52869;DHT22;39100;53.480;6.158;2023-01-23T09:40:17;4.90;99.90
52869;DHT22;39100;53.480;6.158;2023-01-23T09:42:42;4.90;99.90
52869;DHT22;39100;53.480;6.158;2023-01-23T09:45:11;4.90;99.90
52869;DHT22;39100;53.480;6.158;2023-01-23T09:48:07;4.90;99.90
52869;DHT22;39100;53.480;6.158;2023-01-23T09:50:47;4.90;99.90
52869;DHT22;39100;53.480;6.158;2023-01-23T09:53:19;4.90;99.90
52869;DHT22;39100;53.480;6.158;2023-01-23T09:55:58;4.90;99.90
52869;DHT22;39100;53.480;6.158;2023-01-23T09:58:38;4.90;99.90
52869;DHT22;39100;53.480;6.158;2023-01-23T10:01:10;4.90;99.90
52869;DHT22;39100;53.480;6.158;2023-01-23T10:03:36;4.90;99.90
52869;DHT22;39100;53.480;6.158;2023-01-23T10:06:29;4.90;99.90
52869;DHT22;39100;53.480;6.158;2023-01-23T10:11:36;5.00;99.90
52869;DHT22;39100;53.480;6.158;2023-01-23T10:17:48;5.00;99.90
52869;DHT22;39100;53.480;6.158;2023-01-23T10:25:39;5.10;99.90
52869;DHT22;39100;53.480;6.158;2023-01-23T10:28:32;5.10;99.90
52869;DHT22;39100;53.480;6.158;2023-01-23T10:31:34;5.10;99.90
52869;DHT22;39100;53.480;6.158;2023-01-23T10:36:38;5.10;99.90
52869;DHT22;39100;53.480;6.158;2023-01-23T10:39:13;5.10;99.90
52869;DHT22;39100;53.480;6.158;2023-01-23T10:41:40;5.10;99.90
52869;DHT22;39100;53.480;6.158;2023-01-23T10:44:17;5.10;99.90
52869;DHT22;39100;53.480;6.158;2023-01-23T10:46:52;5.20;99.90
52869;DHT22;39100;53.480;6.158;2023-01-23T10:49:35;5.30;99.90
52869;DHT22;39100;53.480;6.158;2023-01-23T10:54:52;5.30;99.90
52869;DHT22;39100;53.480;6.158;2023-01-23T10:57:31;5.30;99.90
52869;DHT22;39100;53.480;6.158;2023-01-23T11:00:04;5.30;99.90
52869;DHT22;39100;53.480;6.158;2023-01-23T11:02:37;5.30;99.90
52869;DHT22;39100;53.480;6.158;2023-01-23T11:07:55;5.30;99.90
52869;DHT22;39100;53.480;6.158;2023-01-23T11:10:21;5.40;99.90
52869;DHT22;39100;53.480;6.158;2023-01-23T11:12:52;5.40;99.90
52869;DHT22;39100;53.480;6.158;2023-01-23T11:15:30;5.40;99.90
52869;DHT22;39100;53.480;6.158;2023-01-23T11:17:58;5.30;99.90
52869;DHT22;39100;53.480;6.158;2023-01-23T11:20:37;5.40;99.90
52869;DHT22;39100;53.480;6.158;2023-01-23T11:23:15;5.40;99.90
52869;DHT22;39100;53.480;6.158;2023-01-23T11:25:49;5.40;99.90
52869;DHT22;39100;53.480;6.158;2023-01-23T11:28:19;5.40;99.90
52869;DHT22;39100;53.480;6.158;2023-01-23T11:30:51;5.40;99.90
52869;DHT22;39100;53.480;6.158;2023-01-23T11:33:32;5.40;99.90
52869;DHT22;39100;53.480;6.158;2023-01-23T11:36:07;5.50;99.90
52869;DHT22;39100;53.480;6.158;2023-01-23T11:38:43;5.50;99.90
52869;DHT22;39100;53.480;6.158;2023-01-23T11:41:11;5.50;99.90
52869;DHT22;39100;53.480;6.158;2023-01-23T11:43:38;5.40;99.90
52869;DHT22;39100;53.480;6.158;2023-01-23T11:46:18;5.40;99.90
52869;DHT22;39100;53.480;6.158;2023-01-23T11:51:35;5.50;99.90
52869;DHT22;39100;53.480;6.158;2023-01-23T11:54:31;5.50;99.90
52869;DHT22;39100;53.480;6.158;2023-01-23T11:57:14;5.50;99.90
52869;DHT22;39100;53.480;6.158;2023-01-23T11:59:50;5.50;99.90
52869;DHT22;39100;53.480;6.158;2023-01-23T12:02:37;5.60;99.90
52869;DHT22;39100;53.480;6.158;2023-01-23T12:16:30;5.70;99.90
52869;DHT22;39100;53.480;6.158;2023-01-23T12:21:59;5.70;99.90
52869;DHT22;39100;53.480;6.158;2023-01-23T12:27:44;5.70;99.90
52869;DHT22;39100;53.480;6.158;2023-01-23T12:32:56;5.70;99.90
52869;DHT22;39100;53.480;6.158;2023-01-23T12:35:44;5.60;99.90
52869;DHT22;39100;53.480;6.158;2023-01-23T12:38:19;5.50;99.90
52869;DHT22;39100;53.480;6.158;2023-01-23T12:40:47;5.60;99.90
52869;DHT22;39100;53.480;6.158;2023-01-23T12:43:39;5.60;99.90
52869;DHT22;39100;53.480;6.158;2023-01-23T12:46:16;5.60;99.90
52869;DHT22;39100;53.480;6.158;2023-01-23T12:51:46;5.60;99.90
52869;DHT22;39100;53.480;6.158;2023-01-23T12:54:16;5.60;99.90
52869;DHT22;39100;53.480;6.158;2023-01-23T12:56:45;5.70;99.90
52869;DHT22;39100;53.480;6.158;2023-01-23T12:59:24;5.70;99.90
52869;DHT22;39100;53.480;6.158;2023-01-23T13:07:05;5.60;99.90
52869;DHT22;39100;53.480;6.158;2023-01-23T13:09:43;5.60;99.90
52869;DHT22;39100;53.480;6.158;2023-01-23T13:12:20;5.60;99.90
52869;DHT22;39100;53.480;6.158;2023-01-23T13:14:47;5.60;99.90
52869;DHT22;39100;53.480;6.158;2023-01-23T13:17:36;5.60;99.90
52869;DHT22;39100;53.480;6.158;2023-01-23T13:20:25;5.60;99.90
52869;DHT22;39100;53.480;6.158;2023-01-23T13:23:27;5.50;99.90
52869;DHT22;39100;53.480;6.158;2023-01-23T13:26:11;5.50;99.90
52869;DHT22;39100;53.480;6.158;2023-01-23T13:28:51;5.50;99.90
52869;DHT22;39100;53.480;6.158;2023-01-23T13:31:41;5.50;99.90
52869;DHT22;39100;53.480;6.158;2023-01-23T13:36:43;5.50;99.90
52869;DHT22;39100;53.480;6.158;2023-01-23T13:41:37;5.60;99.90
52869;DHT22;39100;53.480;6.158;2023-01-23T13:52:25;5.60;99.90
52869;DHT22;39100;53.480;6.158;2023-01-23T13:55:27;5.50;99.90
52869;DHT22;39100;53.480;6.158;2023-01-23T13:58:24;5.60;99.90
52869;DHT22;39100;53.480;6.158;2023-01-23T14:03:57;5.70;99.90
52869;DHT22;39100;53.480;6.158;2023-01-23T14:06:43;5.70;99.90
52869;DHT22;39100;53.480;6.158;2023-01-23T14:09:20;5.70;99.90
52869;DHT22;39100;53.480;6.158;2023-01-23T14:11:46;5.80;99.90
52869;DHT22;39100;53.480;6.158;2023-01-23T14:14:14;5.80;99.90
52869;DHT22;39100;53.480;6.158;2023-01-23T14:16:58;5.80;99.90
52869;DHT22;39100;53.480;6.158;2023-01-23T14:19:27;5.70;99.90
52869;DHT22;39100;53.480;6.158;2023-01-23T14:21:58;5.70;99.90
52869;DHT22;39100;53.480;6.158;2023-01-23T14:24:27;5.70;99.90
52869;DHT22;39100;53.480;6.158;2023-01-23T14:27:07;5.70;99.90
52869;DHT22;39100;53.480;6.158;2023-01-23T14:29:33;5.80;99.90
52869;DHT22;39100;53.480;6.158;2023-01-23T14:31:58;5.70;99.90
52869;DHT22;39100;53.480;6.158;2023-01-23T14:34:25;5.70;99.90
52869;DHT22;39100;53.480;6.158;2023-01-23T14:36:56;5.70;99.90
52869;DHT22;39100;53.480;6.158;2023-01-23T14:39:29;5.70;99.90
52869;DHT22;39100;53.480;6.158;2023-01-23T14:41:57;5.70;99.90
52869;DHT22;39100;53.480;6.158;2023-01-23T14:44:39;5.70;99.90
52869;DHT22;39100;53.480;6.158;2023-01-23T14:47:05;5.60;99.90
52869;DHT22;39100;53.480;6.158;2023-01-23T14:49:34;5.60;99.90
52869;DHT22;39100;53.480;6.158;2023-01-23T14:52:02;5.60;99.90
52869;DHT22;39100;53.480;6.158;2023-01-23T14:54:30;5.60;99.90
52869;DHT22;39100;53.480;6.158;2023-01-23T14:56:56;5.60;99.90
52869;DHT22;39100;53.480;6.158;2023-01-23T15:02:18;5.60;99.90
52869;DHT22;39100;53.480;6.158;2023-01-23T15:05:17;5.60;99.90
52869;DHT22;39100;53.480;6.158;2023-01-23T15:10:27;5.50;99.90
52869;DHT22;39100;53.480;6.158;2023-01-23T15:12:56;5.50;99.90
52869;DHT22;39100;53.480;6.158;2023-01-23T15:15:24;5.50;99.90
52869;DHT22;39100;53.480;6.158;2023-01-23T15:17:51;5.50;99.90
52869;DHT22;39100;53.480;6.158;2023-01-23T15:20:37;5.40;99.90
52869;DHT22;39100;53.480;6.158;2023-01-23T15:23:28;5.40;99.90
52869;DHT22;39100;53.480;6.158;2023-01-23T15:28:48;5.30;99.90
52869;DHT22;39100;53.480;6.158;2023-01-23T15:34:30;5.30;99.90
52869;DHT22;39100;53.480;6.158;2023-01-23T15:39:52;5.20;99.90
52869;DHT22;39100;53.480;6.158;2023-01-23T15:42:24;5.10;99.90
52869;DHT22;39100;53.480;6.158;2023-01-23T15:44:50;5.10;99.90
52869;DHT22;39100;53.480;6.158;2023-01-23T15:47:15;5.10;99.90
52869;DHT22;39100;53.480;6.158;2023-01-23T15:49:41;5.00;99.90
52869;DHT22;39100;53.480;6.158;2023-01-23T15:54:42;5.00;99.90
52869;DHT22;39100;53.480;6.158;2023-01-23T15:57:11;4.90;99.90
52869;DHT22;39100;53.480;6.158;2023-01-23T15:59:37;4.90;99.90
52869;DHT22;39100;53.480;6.158;2023-01-23T16:02:05;4.90;99.90
52869;DHT22;39100;53.480;6.158;2023-01-23T16:04:31;4.90;99.90
52869;DHT22;39100;53.480;6.158;2023-01-23T16:07:00;4.90;99.90
52869;DHT22;39100;53.480;6.158;2023-01-23T16:09:29;4.90;99.90
52869;DHT22;39100;53.480;6.158;2023-01-23T16:11:57;4.90;99.90
52869;DHT22;39100;53.480;6.158;2023-01-23T16:14:23;4.90;99.90
52869;DHT22;39100;53.480;6.158;2023-01-23T16:16:49;4.90;99.90
52869;DHT22;39100;53.480;6.158;2023-01-23T16:19:15;5.00;99.90
52869;DHT22;39100;53.480;6.158;2023-01-23T16:21:42;5.00;99.90
52869;DHT22;39100;53.480;6.158;2023-01-23T16:24:20;4.90;99.90
52869;DHT22;39100;53.480;6.158;2023-01-23T16:26:48;4.80;99.90
52869;DHT22;39100;53.480;6.158;2023-01-23T16:29:25;4.80;99.90
52869;DHT22;39100;53.480;6.158;2023-01-23T16:31:51;4.80;99.90
52869;DHT22;39100;53.480;6.158;2023-01-23T16:34:17;4.80;99.90
52869;DHT22;39100;53.480;6.158;2023-01-23T16:36:42;4.80;99.90
52869;DHT22;39100;53.480;6.158;2023-01-23T16:39:18;4.80;99.90
52869;DHT22;39100;53.480;6.158;2023-01-23T16:41:44;4.80;99.90
52869;DHT22;39100;53.480;6.158;2023-01-23T16:44:14;4.80;99.90
52869;DHT22;39100;53.480;6.158;2023-01-23T16:46:42;4.80;99.90
52869;DHT22;39100;53.480;6.158;2023-01-23T16:49:08;4.80;99.90
52869;DHT22;39100;53.480;6.158;2023-01-23T16:51:34;4.80;99.90
52869;DHT22;39100;53.480;6.158;2023-01-23T16:53:59;4.80;99.90
52869;DHT22;39100;53.480;6.158;2023-01-23T16:56:36;4.90;99.90
52869;DHT22;39100;53.480;6.158;2023-01-23T16:59:05;4.90;99.90
52869;DHT22;39100;53.480;6.158;2023-01-23T17:01:35;4.90;99.90
52869;DHT22;39100;53.480;6.158;2023-01-23T17:04:02;4.80;99.90
52869;DHT22;39100;53.480;6.158;2023-01-23T17:06:29;4.90;99.90
52869;DHT22;39100;53.480;6.158;2023-01-23T17:08:54;5.00;99.90
52869;DHT22;39100;53.480;6.158;2023-01-23T17:11:42;5.00;99.90
52869;DHT22;39100;53.480;6.158;2023-01-23T17:14:18;4.90;99.90
52869;DHT22;39100;53.480;6.158;2023-01-23T17:16:46;5.00;99.90
52869;DHT22;39100;53.480;6.158;2023-01-23T17:19:23;4.90;99.90
52869;DHT22;39100;53.480;6.158;2023-01-23T17:21:50;4.80;99.90
52869;DHT22;39100;53.480;6.158;2023-01-23T17:24:16;4.80;99.90
52869;DHT22;39100;53.480;6.158;2023-01-23T17:26:42;4.80;99.90
52869;DHT22;39100;53.480;6.158;2023-01-23T17:29:09;4.80;99.90
52869;DHT22;39100;53.480;6.158;2023-01-23T17:31:35;4.80;99.90
52869;DHT22;39100;53.480;6.158;2023-01-23T17:34:01;4.80;99.90